Time;durP1;ratioP1;P1;durP2;ratioP2;P2;SDS_P1;SDS_P2;PMS_P1;PMS_P2;Temp;Humidity;BMP_temperature;BMP_pressure;BME280_temperature;BME280_humidity;BME280_pressure;Samples;Min_cycle;Max_cycle;Signal;HPM_P1;HPM_P2
2022/09/21 00:00:23;;;;;;;10.13;3.53;;;6.40;99.90;;;;;;4994195;28;20035;-81
2022/09/21 00:02:50;;;;;;;14.18;4.25;;;6.30;99.90;;;;;;4975261;28;20038;-81
2022/09/21 00:05:17;;;;;;;5.85;3.88;;;6.30;99.90;;;;;;4993760;28;20041;-81
2022/09/21 00:07:43;;;;;;;6.40;2.83;;;6.20;99.90;;;;;;4994151;28;20053;-81
2022/09/21 00:10:10;;;;;;;5.88;3.55;;;6.00;99.90;;;;;;4992885;28;20058;-81
2022/09/21 00:12:39;;;;;;;5.65;3.60;;;5.90;99.90;;;;;;4993161;28;20038;-81
2022/09/21 00:15:07;;;;;;;11.05;3.90;;;5.90;99.90;;;;;;4993000;28;20387;-82
2022/09/21 00:17:34;;;;;;;9.27;4.13;;;6.00;99.90;;;;;;4994140;28;20030;-80
2022/09/21 00:20:03;;;;;;;7.90;3.47;;;6.10;99.90;;;;;;4993373;28;20030;-81
2022/09/21 00:22:29;;;;;;;11.70;4.55;;;6.20;99.90;;;;;;4997418;28;20034;-80
2022/09/21 00:24:55;;;;;;;4.65;3.78;;;6.20;99.90;;;;;;4993644;28;20038;-80
2022/09/21 00:27:28;;;;;;;10.15;3.60;;;6.20;99.90;;;;;;4994095;28;20038;-80
2022/09/21 00:30:01;;;;;;;9.48;4.45;;;6.20;99.90;;;;;;4993300;28;20034;-83
2022/09/21 00:32:30;;;;;;;5.55;3.58;;;6.20;99.90;;;;;;4994609;28;20053;-80
2022/09/21 00:34:57;;;;;;;4.90;3.83;;;6.00;99.90;;;;;;4977501;28;20043;-80
2022/09/21 00:37:23;;;;;;;5.18;3.65;;;6.00;99.90;;;;;;4995220;28;20162;-82
2022/09/21 00:39:50;;;;;;;12.80;3.80;;;6.00;99.90;;;;;;4994382;28;20030;-81
2022/09/21 00:42:28;;;;;;;4.30;2.92;;;6.10;99.90;;;;;;4992169;28;20364;-80
2022/09/21 00:44:54;;;;;;;6.18;4.13;;;6.00;99.90;;;;;;4992423;28;20026;-81
2022/09/21 00:47:29;;;;;;;5.57;3.10;;;5.80;99.90;;;;;;4993494;28;20030;-81
2022/09/21 00:49:57;;;;;;;5.82;2.95;;;5.60;99.90;;;;;;4992725;28;20522;-81
2022/09/21 00:52:30;;;;;;;6.38;2.78;;;5.50;99.90;;;;;;4991926;28;20034;-81
2022/09/21 00:55:15;;;;;;;5.93;3.10;;;5.50;99.90;;;;;;4975623;28;20038;-81
2022/09/21 00:57:44;;;;;;;7.55;3.75;;;5.40;99.90;;;;;;4993072;28;20034;-81
2022/09/21 01:00:10;;;;;;;9.88;3.60;;;5.30;99.90;;;;;;4975025;28;20033;-81
2022/09/21 01:02:37;;;;;;;11.68;4.30;;;5.40;99.90;;;;;;4991770;28;20030;-81
2022/09/21 01:05:06;;;;;;;8.52;5.18;;;5.40;99.90;;;;;;4992156;28;20026;-80
2022/09/21 01:07:35;;;;;;;10.55;5.72;;;5.40;99.90;;;;;;4975201;28;20050;-80
2022/09/21 01:10:08;;;;;;;9.73;5.03;;;5.40;99.90;;;;;;4992081;28;20391;-81
2022/09/21 01:12:43;;;;;;;8.55;5.70;;;5.40;99.90;;;;;;4994854;28;20042;-79
2022/09/21 01:15:16;;;;;;;8.23;5.30;;;5.40;99.90;;;;;;4992367;28;20093;-80
2022/09/21 01:17:50;;;;;;;6.80;4.13;;;5.40;99.90;;;;;;4986839;28;20121;-78
2022/09/21 01:20:38;;;;;;;8.32;4.43;;;5.50;99.90;;;;;;4987803;28;20034;-80
2022/09/21 01:23:32;;;;;;;10.02;5.15;;;5.50;99.90;;;;;;4995181;28;20038;-77
2022/09/21 01:26:04;;;;;;;9.68;5.13;;;5.40;99.90;;;;;;4990338;28;20041;-81
2022/09/21 01:28:40;;;;;;;7.97;4.90;;;5.50;99.90;;;;;;4975717;28;20093;-81
2022/09/21 01:31:13;;;;;;;7.47;4.93;;;5.30;99.90;;;;;;4992112;28;20034;-81
2022/09/21 01:33:47;;;;;;;6.50;4.18;;;5.10;99.90;;;;;;4991258;28;20039;-82
2022/09/21 01:36:18;;;;;;;7.80;4.40;;;5.00;99.90;;;;;;4993209;28;20026;-78
2022/09/21 01:38:49;;;;;;;7.97;3.85;;;5.00;99.90;;;;;;4996537;28;20057;-80
2022/09/21 01:41:19;;;;;;;9.73;4.55;;;5.00;99.90;;;;;;4996506;28;20379;-81
2022/09/21 01:43:51;;;;;;;9.40;5.07;;;5.00;99.90;;;;;;4995549;28;20030;-81
2022/09/21 01:46:25;;;;;;;9.05;4.95;;;5.00;99.90;;;;;;4997299;28;20045;-80
2022/09/21 01:48:59;;;;;;;8.45;4.72;;;5.10;99.90;;;;;;4996445;28;20083;-77
2022/09/21 01:51:27;;;;;;;8.25;6.32;;;5.10;99.90;;;;;;4996627;28;20038;-80
2022/09/21 01:53:59;;;;;;;11.27;5.43;;;5.20;99.90;;;;;;4994859;28;20038;-80
2022/09/21 01:56:32;;;;;;;11.00;4.93;;;5.10;99.90;;;;;;4996839;28;20036;-80
2022/09/21 01:59:10;;;;;;;9.18;4.60;;;5.20;99.90;;;;;;4995589;28;20050;-82
2022/09/21 02:01:45;;;;;;;7.97;4.93;;;5.00;99.90;;;;;;4996807;28;20042;-80
2022/09/21 02:04:12;;;;;;;9.50;5.00;;;4.90;99.90;;;;;;4998817;28;20038;-79
2022/09/21 02:06:42;;;;;;;7.95;4.95;;;5.00;99.90;;;;;;4998238;28;20038;-79
2022/09/21 02:09:10;;;;;;;8.20;4.65;;;4.90;99.90;;;;;;4995592;28;20042;-81
2022/09/21 02:11:41;;;;;;;11.38;4.65;;;4.90;99.90;;;;;;4997081;28;20035;-80
2022/09/21 02:14:15;;;;;;;9.77;4.53;;;4.80;99.90;;;;;;4994525;28;20033;-80
2022/09/21 02:17:04;;;;;;;9.80;5.50;;;4.70;99.90;;;;;;4996434;28;20038;-80
2022/09/21 02:19:41;;;;;;;8.40;5.10;;;4.80;99.90;;;;;;4996739;28;20041;-80
2022/09/21 02:22:11;;;;;;;6.85;4.55;;;4.60;99.90;;;;;;4995641;28;20043;-81
2022/09/21 02:24:48;;;;;;;8.68;5.13;;;4.50;99.90;;;;;;4994840;28;20033;-81
2022/09/21 02:27:34;;;;;;;11.27;4.97;;;4.60;99.90;;;;;;4978110;28;20046;-80
2022/09/21 02:30:18;;;;;;;8.57;5.20;;;4.60;99.90;;;;;;4995548;28;20030;-80
2022/09/21 02:33:01;;;;;;;10.15;6.55;;;4.50;99.90;;;;;;4977440;28;20042;-80
2022/09/21 02:35:30;;;;;;;9.35;6.28;;;4.50;99.90;;;;;;4994902;28;20031;-81
2022/09/21 02:38:12;;;;;;;8.75;7.00;;;4.40;99.90;;;;;;4976936;28;20053;-81
2022/09/21 02:41:04;;;;;;;9.20;5.72;;;4.50;99.90;;;;;;4995701;28;20057;-81
2022/09/21 02:43:34;;;;;;;9.98;6.07;;;4.60;99.90;;;;;;4990249;28;20053;-81
2022/09/21 02:46:15;;;;;;;9.38;5.75;;;4.60;99.90;;;;;;4994922;28;20030;-81
2022/09/21 02:48:51;;;;;;;11.52;5.95;;;4.60;99.90;;;;;;4994784;28;20034;-80
2022/09/21 02:51:23;;;;;;;9.07;5.60;;;4.60;99.90;;;;;;4995788;28;20042;-81
2022/09/21 02:53:52;;;;;;;6.63;4.95;;;4.60;99.90;;;;;;4997043;28;20034;-81
2022/09/21 02:56:20;;;;;;;9.30;5.28;;;4.50;99.90;;;;;;4998417;28;20034;-80
2022/09/21 02:58:53;;;;;;;7.25;4.68;;;4.50;99.90;;;;;;5011442;28;20023;-80
2022/09/21 03:01:20;;;;;;;7.03;4.85;;;4.40;99.90;;;;;;5018102;28;20042;-81
2022/09/21 03:03:47;;;;;;;10.32;4.82;;;4.40;99.90;;;;;;5002670;28;20035;-80
2022/09/21 03:06:13;;;;;;;8.30;4.60;;;4.20;99.90;;;;;;4995050;28;20045;-81
2022/09/21 03:08:39;;;;;;;6.40;5.05;;;4.20;99.90;;;;;;4994986;28;20053;-81
2022/09/21 03:11:06;;;;;;;9.43;5.82;;;4.20;99.90;;;;;;4994804;28;20411;-82
2022/09/21 03:13:33;;;;;;;10.60;5.22;;;4.30;99.90;;;;;;4993541;28;20038;-79
2022/09/21 03:16:05;;;;;;;12.43;6.03;;;4.20;99.90;;;;;;4994635;28;20033;-80
2022/09/21 03:18:32;;;;;;;11.32;6.20;;;4.20;99.90;;;;;;4995250;28;20037;-79
2022/09/21 03:20:59;;;;;;;9.70;5.15;;;4.10;99.90;;;;;;4976907;28;20079;-81
2022/09/21 03:23:25;;;;;;;9.05;5.38;;;4.00;99.90;;;;;;4993546;28;20053;-80
2022/09/21 03:25:51;;;;;;;8.27;5.70;;;4.10;99.90;;;;;;4995176;28;20030;-81
2022/09/21 03:28:18;;;;;;;11.82;5.72;;;4.00;99.90;;;;;;4976963;28;20394;-81
2022/09/21 03:30:45;;;;;;;10.13;5.47;;;3.90;99.90;;;;;;4995229;28;20039;-80
2022/09/21 03:33:12;;;;;;;8.63;5.45;;;3.80;99.90;;;;;;4974890;28;20057;-80
2022/09/21 03:35:38;;;;;;;9.25;5.05;;;3.80;99.90;;;;;;4994779;28;20041;-80
2022/09/21 03:38:04;;;;;;;9.85;5.72;;;3.80;99.90;;;;;;4994154;28;20403;-81
2022/09/21 03:40:31;;;;;;;9.77;5.78;;;3.80;99.90;;;;;;4994715;28;20498;-80
2022/09/21 03:42:57;;;;;;;14.32;7.35;;;3.80;99.90;;;;;;4991074;28;20053;-79
2022/09/21 03:45:26;;;;;;;9.43;5.15;;;3.90;99.90;;;;;;4995501;28;20379;-80
2022/09/21 03:48:00;;;;;;;16.35;5.55;;;3.80;99.90;;;;;;4997862;28;20038;-82
2022/09/21 03:50:27;;;;;;;11.27;5.90;;;3.70;99.90;;;;;;4996408;28;20034;-82
2022/09/21 03:52:57;;;;;;;10.23;5.43;;;3.60;99.90;;;;;;4991649;28;20034;-81
2022/09/21 03:55:24;;;;;;;9.93;5.60;;;3.60;99.90;;;;;;4993464;28;20042;-83
2022/09/21 03:57:50;;;;;;;8.88;5.20;;;3.60;99.90;;;;;;4994819;28;20026;-76
2022/09/21 04:00:17;;;;;;;9.25;4.70;;;3.60;99.90;;;;;;4993491;28;20038;-76
2022/09/21 04:02:43;;;;;;;11.35;4.90;;;3.60;99.90;;;;;;4993844;28;20398;-76
2022/09/21 04:05:13;;;;;;;10.60;5.95;;;3.80;99.90;;;;;;4991944;28;20042;-77
2022/09/21 04:07:40;;;;;;;10.15;5.32;;;3.80;99.90;;;;;;4994376;28;20034;-76
2022/09/21 04:10:12;;;;;;;8.50;5.30;;;3.90;99.90;;;;;;4993760;28;20050;-78
2022/09/21 04:12:42;;;;;;;9.07;6.35;;;3.70;99.90;;;;;;4989836;28;20045;-77
2022/09/21 04:15:18;;;;;;;15.98;10.73;;;3.80;99.90;;;;;;4975202;28;20455;-78
2022/09/21 04:17:45;;;;;;;15.68;8.95;;;3.70;99.90;;;;;;4993861;28;20034;-78
2022/09/21 04:20:11;;;;;;;13.73;8.55;;;3.70;99.90;;;;;;4993476;28;20406;-77
2022/09/21 04:22:38;;;;;;;15.13;7.72;;;3.70;99.90;;;;;;4993110;28;20058;-76
2022/09/21 04:25:04;;;;;;;13.48;6.50;;;3.60;99.90;;;;;;4991803;28;20035;-76
2022/09/21 04:27:32;;;;;;;15.15;7.30;;;3.70;99.90;;;;;;4976406;28;20050;-77
2022/09/21 04:30:01;;;;;;;9.20;6.10;;;3.70;99.90;;;;;;4976326;28;20045;-76
2022/09/21 04:32:27;;;;;;;10.48;5.78;;;3.60;99.90;;;;;;4993759;28;20035;-78
2022/09/21 04:34:54;;;;;;;9.15;5.82;;;3.40;99.90;;;;;;4974624;28;20042;-77
2022/09/21 04:37:20;;;;;;;9.98;5.25;;;3.40;99.90;;;;;;4995776;28;20058;-78
2022/09/21 04:39:46;;;;;;;10.00;6.07;;;3.40;99.90;;;;;;4993626;28;20026;-76
2022/09/21 04:42:13;;;;;;;13.20;5.63;;;3.50;99.90;;;;;;4974778;28;20053;-76
2022/09/21 04:44:39;;;;;;;15.75;6.55;;;3.50;99.90;;;;;;4991892;28;20049;-77
2022/09/21 04:47:05;;;;;;;11.07;5.47;;;3.50;99.90;;;;;;4992647;28;20387;-76
2022/09/21 04:49:31;;;;;;;15.00;5.93;;;3.50;99.90;;;;;;4993328;28;20378;-76
2022/09/21 04:51:57;;;;;;;14.73;6.07;;;3.40;99.90;;;;;;4993000;28;20484;-77
2022/09/21 04:54:23;;;;;;;9.30;5.90;;;3.50;99.90;;;;;;4993416;28;20034;-77
2022/09/21 04:56:50;;;;;;;11.75;5.90;;;3.50;99.90;;;;;;4987048;28;20057;-78
2022/09/21 04:59:16;;;;;;;10.90;5.50;;;3.40;99.90;;;;;;4993157;28;20038;-78
2022/09/21 05:01:42;;;;;;;10.38;6.15;;;3.60;99.90;;;;;;4993223;28;20046;-79
2022/09/21 05:04:08;;;;;;;15.07;7.20;;;3.60;99.90;;;;;;4991318;28;20034;-77
2022/09/21 05:06:34;;;;;;;14.23;7.10;;;3.80;99.90;;;;;;4992635;28;20030;-77
2022/09/21 05:11:48;;;;;;;17.02;8.55;;;4.00;99.90;;;;;;4992869;28;20039;-77
2022/09/21 05:14:14;;;;;;;16.55;10.18;;;3.90;99.90;;;;;;4990948;28;20391;-77
2022/09/21 05:16:41;;;;;;;16.13;9.70;;;3.80;99.90;;;;;;4992711;28;20459;-77
2022/09/21 05:19:07;;;;;;;11.57;6.85;;;3.70;99.90;;;;;;4992388;28;20041;-77
2022/09/21 05:21:33;;;;;;;14.85;7.90;;;3.60;99.90;;;;;;4993114;28;20049;-76
2022/09/21 05:23:59;;;;;;;14.93;8.45;;;3.50;99.90;;;;;;4993226;28;20026;-75
2022/09/21 05:26:25;;;;;;;15.60;7.95;;;3.50;99.90;;;;;;4991378;28;20034;-74
2022/09/21 05:28:52;;;;;;;15.82;9.02;;;3.60;99.90;;;;;;4975584;28;20038;-74
2022/09/21 05:31:36;;;;;;;14.73;8.13;;;3.50;99.90;;;;;;4991833;28;20471;-74
2022/09/21 05:34:02;;;;;;;18.08;9.20;;;3.50;99.90;;;;;;4973726;28;20110;-78
2022/09/21 05:36:52;;;;;;;15.93;8.77;;;3.50;99.90;;;;;;4991868;28;20030;-74
2022/09/21 05:39:19;;;;;;;17.40;9.82;;;3.60;99.90;;;;;;4992016;28;20030;-73
2022/09/21 05:41:45;;;;;;;13.15;8.43;;;3.80;99.90;;;;;;4992479;28;20078;-74
2022/09/21 05:44:13;;;;;;;15.25;9.20;;;3.80;99.90;;;;;;4990625;28;20041;-74
2022/09/21 05:47:03;;;;;;;13.48;8.35;;;3.90;99.90;;;;;;4992046;28;20031;-73
2022/09/21 05:49:59;;;;;;;15.13;8.88;;;3.90;99.90;;;;;;4992836;28;20142;-75
2022/09/21 05:52:45;;;;;;;13.50;8.88;;;4.10;99.90;;;;;;4991976;28;20038;-74
2022/09/21 05:55:36;;;;;;;18.13;10.60;;;4.20;99.90;;;;;;4991360;28;20041;-73
2022/09/21 05:58:22;;;;;;;18.65;9.40;;;4.40;99.90;;;;;;4992337;28;20038;-73
2022/09/21 06:01:00;;;;;;;11.35;7.95;;;5.10;99.90;;;;;;4976209;28;20046;-73
2022/09/21 06:03:31;;;;;;;9.77;5.95;;;6.10;99.90;;;;;;4984963;28;20433;-73
2022/09/21 06:05:58;;;;;;;8.75;6.15;;;6.40;99.90;;;;;;4991947;28;20038;-73
2022/09/21 06:08:25;;;;;;;7.32;4.82;;;6.40;99.90;;;;;;4991434;28;20049;-74
2022/09/21 06:10:52;;;;;;;7.30;5.20;;;6.30;99.90;;;;;;4992702;28;20038;-73
2022/09/21 06:13:18;;;;;;;8.70;5.32;;;6.30;99.90;;;;;;4973083;28;20031;-74
2022/09/21 06:15:45;;;;;;;8.27;5.00;;;6.30;99.90;;;;;;4991940;28;20379;-74
2022/09/21 06:18:11;;;;;;;9.13;4.93;;;6.20;99.90;;;;;;4985236;28;20030;-74
2022/09/21 06:20:37;;;;;;;7.25;5.20;;;6.30;99.90;;;;;;4993021;28;20130;-74
2022/09/21 06:23:09;;;;;;;7.63;5.43;;;6.30;99.90;;;;;;4991837;28;20585;-75
2022/09/21 06:25:35;;;;;;;6.65;5.07;;;6.40;99.90;;;;;;4995318;28;20030;-74
2022/09/21 06:28:07;;;;;;;7.97;5.72;;;6.40;99.90;;;;;;4995683;28;20031;-76
2022/09/21 06:30:33;;;;;;;8.55;5.45;;;7.00;99.90;;;;;;4995747;28;20034;-74
2022/09/21 06:33:01;;;;;;;10.00;5.93;;;8.50;99.90;;;;;;4994744;28;20038;-74
2022/09/21 06:35:28;;;;;;;7.70;5.47;;;9.70;99.90;;;;;;4994661;28;20035;-76
2022/09/21 06:38:02;;;;;;;5.93;4.50;;;10.00;99.90;;;;;;4995515;28;20058;-76
2022/09/21 06:40:30;;;;;;;7.53;4.53;;;10.20;99.90;;;;;;4988920;28;20030;-74
2022/09/21 06:43:01;;;;;;;7.38;4.05;;;11.00;99.90;;;;;;4976761;28;20058;-75
2022/09/21 06:45:28;;;;;;;;;;;11.50;99.90;;;;;;4992311;28;20034;-76
2022/09/21 06:47:54;;;;;;;4.32;2.80;;;11.20;99.90;;;;;;4995615;28;19910;-75
2022/09/21 06:50:21;;;;;;;4.45;3.55;;;11.20;99.90;;;;;;4994930;28;20034;-75
2022/09/21 06:52:47;;;;;;;4.93;3.15;;;11.70;99.90;;;;;;4994384;28;20054;-74
2022/09/21 06:55:14;;;;;;;5.65;3.17;;;11.40;99.90;;;;;;4976932;28;20034;-74
2022/09/21 06:57:40;;;;;;;5.60;3.17;;;11.20;99.90;;;;;;4995536;28;20467;-75
2022/09/21 07:00:11;;;;;;;5.53;2.75;;;10.90;99.90;;;;;;4977871;28;20041;-76
2022/09/21 07:02:37;;;;;;;4.93;3.25;;;10.80;99.90;;;;;;4994496;28;20038;-77
2022/09/21 07:05:04;;;;;;;5.88;4.03;;;10.40;99.90;;;;;;4994415;28;20383;-75
2022/09/21 07:07:30;;;;;;;10.48;3.97;;;10.40;99.90;;;;;;4977114;28;20042;-74
2022/09/21 07:09:58;;;;;;;5.93;2.97;;;10.50;99.90;;;;;;4977517;28;20042;-73
2022/09/21 07:12:25;;;;;;;4.30;3.10;;;10.60;99.90;;;;;;5004373;28;20023;-76
2022/09/21 07:14:51;;;;;;;4.75;3.25;;;11.20;99.90;;;;;;5018313;28;20026;-75
2022/09/21 07:17:18;;;;;;;6.53;3.58;;;11.20;99.90;;;;;;5009963;28;20026;-75
2022/09/21 07:19:44;;;;;;;6.32;3.67;;;11.20;99.90;;;;;;4995450;28;20041;-75
2022/09/21 07:22:10;;;;;;;6.82;3.20;;;11.80;99.90;;;;;;4994282;28;20038;-75
2022/09/21 07:24:36;;;;;;;4.10;3.20;;;11.70;99.90;;;;;;4993208;28;20038;-74
2022/09/21 07:27:03;;;;;;;6.32;3.72;;;11.40;99.90;;;;;;4995012;28;20042;-74
2022/09/21 07:29:29;;;;;;;6.70;3.60;;;11.90;99.90;;;;;;4976859;28;20081;-76
2022/09/21 07:31:56;;;;;;;3.80;2.30;;;12.40;99.90;;;;;;4994446;28;20042;-75
2022/09/21 07:34:22;;;;;;;12.90;3.35;;;12.40;99.90;;;;;;4992267;28;20022;-76
2022/09/21 07:36:48;;;;;;;3.75;2.72;;;11.90;99.90;;;;;;4994355;28;20245;-74
2022/09/21 07:39:14;;;;;;;3.30;2.45;;;11.40;99.90;;;;;;4976228;28;20042;-74
2022/09/21 07:41:40;;;;;;;5.90;3.67;;;11.70;99.90;;;;;;4994430;28;20414;-75
2022/09/21 07:44:06;;;;;;;8.02;2.78;;;11.50;99.90;;;;;;4993227;28;20030;-76
2022/09/21 07:46:33;;;;;;;4.38;2.85;;;11.40;99.90;;;;;;4993591;28;20490;-74
2022/09/21 07:48:59;;;;;;;6.85;3.05;;;11.40;99.90;;;;;;4994509;28;20451;-75
2022/09/21 07:51:25;;;;;;;3.28;2.30;;;11.70;99.90;;;;;;4993867;28;20041;-75
2022/09/21 07:53:55;;;;;;;5.15;2.70;;;12.10;99.90;;;;;;4993125;28;20045;-75
2022/09/21 07:56:22;;;;;;;7.32;2.40;;;11.80;99.90;;;;;;4975466;28;20049;-74
2022/09/21 07:59:06;;;;;;;4.18;2.70;;;12.10;99.90;;;;;;4993943;28;20034;-75
2022/09/21 08:01:37;;;;;;;4.60;2.58;;;12.60;99.90;;;;;;4994417;28;20499;-76
2022/09/21 08:04:06;;;;;;;5.10;2.28;;;12.30;99.90;;;;;;4993374;28;20035;-75
2022/09/21 08:06:34;;;;;;;2.80;1.90;;;12.70;99.90;;;;;;4992773;28;20041;-75
2022/09/21 08:09:02;;;;;;;4.60;1.95;;;13.00;99.90;;;;;;4993779;28;20039;-76
2022/09/21 08:11:29;;;;;;;5.10;2.30;;;13.00;99.90;;;;;;4993402;28;20093;-74
2022/09/21 08:13:58;;;;;;;2.80;2.42;;;13.00;99.90;;;;;;4992504;28;20030;-74
2022/09/21 08:16:25;;;;;;;4.05;2.30;;;13.00;99.90;;;;;;4992777;28;20046;-76
2022/09/21 08:18:52;;;;;;;6.07;2.47;;;13.40;99.90;;;;;;4993696;28;20463;-74
2022/09/21 08:21:19;;;;;;;4.40;2.15;;;13.90;99.90;;;;;;4993222;28;20065;-75
2022/09/21 08:23:46;;;;;;;4.95;2.08;;;14.30;99.90;;;;;;4992435;28;20038;-75
2022/09/21 08:26:21;;;;;;;5.03;2.45;;;14.20;99.90;;;;;;4992952;28;20035;-78
2022/09/21 08:28:50;;;;;;;5.70;2.70;;;14.20;99.90;;;;;;4993590;28;20030;-74
2022/09/21 08:31:18;;;;;;;3.78;2.60;;;14.50;99.90;;;;;;4992839;28;20365;-76
2022/09/21 08:33:45;;;;;;;4.07;2.58;;;14.30;99.90;;;;;;4992330;28;20030;-75
2022/09/21 08:36:12;;;;;;;2.92;2.28;;;13.80;99.90;;;;;;4992252;28;20495;-77
2022/09/21 08:38:38;;;;;;;4.78;2.70;;;13.20;99.90;;;;;;4993091;28;20042;-74
2022/09/21 08:41:34;;;;;;;3.78;2.67;;;13.20;99.90;;;;;;4960190;28;20038;-74
2022/09/21 08:44:17;;;;;;;2.70;2.00;;;13.20;99.90;;;;;;4987360;28;20038;-75
2022/09/21 08:46:47;;;;;;;3.00;2.15;;;13.50;99.90;;;;;;4992644;28;20038;-74
2022/09/21 08:49:21;;;;;;;4.97;3.13;;;13.90;99.90;;;;;;4992523;28;20026;-75
2022/09/21 08:51:59;;;;;;;4.03;2.30;;;13.60;99.90;;;;;;4993637;28;20495;-74
2022/09/21 08:54:42;;;;;;;7.68;2.10;;;13.80;99.90;;;;;;4991015;28;20041;-74
2022/09/21 08:57:12;;;;;;;4.35;2.72;;;14.10;99.90;;;;;;4992896;28;20038;-75
2022/09/21 08:59:44;;;;;;;7.65;2.35;;;14.70;99.90;;;;;;4993536;28;20030;-76
2022/09/21 09:02:33;;;;;;;5.35;2.05;;;14.90;99.90;;;;;;4992793;28;20038;-74
2022/09/21 09:05:32;;;;;;;3.92;1.92;;;14.10;99.90;;;;;;4992499;28;20038;-74
2022/09/21 09:08:40;;;;;;;4.88;1.52;;;14.20;99.90;;;;;;4988729;28;20101;-74
2022/09/21 09:11:29;;;;;;;4.22;1.50;;;14.70;99.90;;;;;;4952302;28;20055;-75
2022/09/21 09:14:20;;;;;;;3.13;1.27;;;14.80;99.90;;;;;;4945338;28;20574;-75
2022/09/21 09:16:46;;;;;;;;;;;15.00;99.90;;;;;;4993089;28;20045;-75
2022/09/21 09:19:31;;;;;;;25.08;16.65;;;15.10;99.90;;;;;;4992549;28;19917;-75
2022/09/21 09:22:03;;;;;;;3.03;1.98;;;15.40;99.90;;;;;;4991276;28;20047;-74
2022/09/21 09:24:47;;;;;;;4.70;1.52;;;15.80;97.30;;;;;;4990881;28;20395;-75
2022/09/21 09:27:17;;;;;;;3.67;1.15;;;15.90;94.80;;;;;;4958620;28;20042;-81
2022/09/21 09:30:27;;;;;;;3.65;0.88;;;16.00;94.30;;;;;;4992688;28;20038;-73
2022/09/21 09:32:57;;;;;;;3.25;1.23;;;16.40;94.10;;;;;;4970702;28;20052;-74
2022/09/21 09:35:43;;;;;;;1.73;1.00;;;16.40;92.60;;;;;;4991603;28;20498;-76
2022/09/21 09:38:19;;;;;;;3.58;1.40;;;15.90;93.80;;;;;;4992638;28;20305;-76
2022/09/21 09:40:48;;;;;;;2.30;0.70;;;16.60;93.30;;;;;;4992546;28;20035;-74
2022/09/21 09:43:33;;;;;;;1.27;0.70;;;16.40;91.40;;;;;;4991545;28;20038;-78
2022/09/21 09:46:11;;;;;;;1.30;0.82;;;16.30;91.80;;;;;;4988200;28;20117;-76
2022/09/21 09:48:50;;;;;;;1.38;0.63;;;16.40;88.80;;;;;;4992162;28;20041;-74
2022/09/21 09:51:18;;;;;;;1.23;0.50;;;16.40;90.60;;;;;;4991812;28;20034;-75
2022/09/21 09:53:44;;;;;;;1.35;0.60;;;16.10;90.40;;;;;;4991221;28;20034;-74
2022/09/21 09:56:13;;;;;;;1.10;0.68;;;16.10;90.40;;;;;;4992323;28;20041;-75
2022/09/21 09:58:52;;;;;;;1.73;0.73;;;16.20;90.60;;;;;;4996483;28;20058;-75
2022/09/21 10:01:37;;;;;;;3.03;1.48;;;15.90;91.90;;;;;;4995812;28;20030;-75
2022/09/21 10:04:09;;;;;;;2.25;0.80;;;16.20;91.30;;;;;;4994761;28;20395;-74
2022/09/21 10:06:36;;;;;;;1.10;0.60;;;16.20;86.90;;;;;;4995403;28;20034;-75
2022/09/21 10:09:21;;;;;;;1.30;0.70;;;16.30;88.80;;;;;;4996044;28;20387;-75
2022/09/21 10:11:47;;;;;;;2.28;0.93;;;16.50;84.50;;;;;;4996286;28;20371;-73
2022/09/21 10:14:22;;;;;;;2.08;0.60;;;16.00;82.50;;;;;;4994355;28;20035;-79
2022/09/21 10:16:54;;;;;;;1.02;0.70;;;16.10;83.20;;;;;;4995073;28;20050;-73
2022/09/21 10:19:26;;;;;;;3.03;0.63;;;16.30;82.40;;;;;;4995298;28;20031;-74
2022/09/21 10:21:57;;;;;;;1.05;0.30;;;16.20;86.10;;;;;;4994590;28;20042;-72
2022/09/21 10:24:35;;;;;;;1.20;0.50;;;15.90;86.50;;;;;;4993804;28;20053;-76
2022/09/21 10:27:10;;;;;;;1.75;0.75;;;15.80;87.60;;;;;;4996153;28;20049;-75
2022/09/21 10:29:48;;;;;;;2.22;0.82;;;15.70;88.80;;;;;;4995071;28;20387;-75
2022/09/21 10:32:21;;;;;;;2.38;0.50;;;15.80;86.70;;;;;;4995437;28;20034;-75
2022/09/21 10:35:02;;;;;;;1.85;0.80;;;16.00;86.40;;;;;;4995364;28;20038;-74
2022/09/21 10:37:33;;;;;;;0.93;0.60;;;16.50;86.20;;;;;;4977131;28;20415;-73
2022/09/21 10:40:00;;;;;;;1.83;0.77;;;16.90;79.90;;;;;;4995826;28;20031;-75
2022/09/21 10:42:35;;;;;;;1.77;0.50;;;17.00;78.30;;;;;;4993823;28;20038;-75
2022/09/21 10:45:19;;;;;;;2.78;0.32;;;16.40;79.40;;;;;;4995251;28;20041;-74
2022/09/21 10:47:45;;;;;;;2.67;0.60;;;16.30;82.70;;;;;;4995259;28;20034;-74
2022/09/21 10:50:45;;;;;;;1.80;0.70;;;16.70;82.50;;;;;;4995239;28;20041;-75
2022/09/21 10:53:16;;;;;;;1.33;0.60;;;16.90;81.80;;;;;;4994045;28;20042;-75
2022/09/21 10:55:43;;;;;;;0.98;0.50;;;16.40;86.40;;;;;;4994844;28;20045;-75
2022/09/21 10:58:11;;;;;;;3.25;0.75;;;16.10;88.60;;;;;;4995367;28;20045;-75
2022/09/21 11:00:50;;;;;;;3.28;1.02;;;16.00;90.90;;;;;;4976949;28;20050;-75
2022/09/21 11:03:34;;;;;;;2.55;0.70;;;15.80;90.10;;;;;;4993470;28;20034;-76
2022/09/21 11:06:24;;;;;;;3.22;0.80;;;15.60;91.10;;;;;;4994812;28;20038;-75
2022/09/21 11:09:16;;;;;;;1.07;0.80;;;15.60;92.00;;;;;;4994576;28;20034;-74
2022/09/21 11:11:58;;;;;;;3.08;0.98;;;15.30;92.30;;;;;;4994927;28;20038;-75
2022/09/21 11:14:55;;;;;;;8.38;1.05;;;15.20;92.80;;;;;;4992899;28;20049;-76
2022/09/21 11:17:33;;;;;;;2.88;0.80;;;15.50;93.10;;;;;;4994605;28;20052;-75
2022/09/21 11:20:17;;;;;;;3.55;0.82;;;15.60;93.00;;;;;;4977868;28;20470;-74
2022/09/21 11:23:03;;;;;;;1.85;0.60;;;15.80;94.50;;;;;;4993828;28;20042;-74
2022/09/21 11:25:48;;;;;;;3.67;0.77;;;16.00;92.70;;;;;;4973734;28;20047;-74
2022/09/21 11:28:24;;;;;;;5.20;0.80;;;16.10;91.40;;;;;;4996592;28;20478;-73
2022/09/21 11:31:19;;;;;;;1.15;0.50;;;16.20;91.00;;;;;;5018245;28;20038;-76
2022/09/21 11:34:15;;;;;;;4.03;0.73;;;16.20;91.30;;;;;;4991130;28;20414;-74
2022/09/21 11:37:00;;;;;;;1.10;0.55;;;16.60;91.10;;;;;;4994422;28;20058;-75
2022/09/21 11:39:53;;;;;;;2.25;0.47;;;17.00;88.40;;;;;;4993924;28;20046;-75
2022/09/21 11:42:27;;;;;;;2.97;0.82;;;17.10;84.60;;;;;;4992999;28;20037;-75
2022/09/21 11:44:58;;;;;;;1.73;0.90;;;17.50;82.90;;;;;;4994442;28;20065;-74
2022/09/21 11:47:54;;;;;;;1.05;0.40;;;18.10;82.00;;;;;;4993948;28;20038;-76
2022/09/21 11:50:23;;;;;;;2.25;0.50;;;18.30;77.40;;;;;;4966656;28;20372;-75
2022/09/21 11:52:52;;;;;;;2.00;0.68;;;18.10;76.10;;;;;;4993090;28;20049;-76
2022/09/21 11:55:43;;;;;;;1.60;0.65;;;17.70;75.70;;;;;;4993435;28;20375;-76
2022/09/21 11:58:17;;;;;;;2.08;0.60;;;17.00;78.50;;;;;;4994386;28;20030;-74
2022/09/21 12:01:00;;;;;;;1.73;0.40;;;16.70;78.90;;;;;;4987836;28;20050;-75
2022/09/21 12:03:43;;;;;;;1.15;0.57;;;16.60;83.20;;;;;;4992174;28;20042;-76
2022/09/21 12:06:40;;;;;;;1.17;0.50;;;16.40;81.80;;;;;;4993570;28;20042;-76
2022/09/21 12:09:33;;;;;;;2.55;0.60;;;16.30;81.90;;;;;;4994262;28;20387;-74
2022/09/21 12:12:13;;;;;;;1.90;0.57;;;16.40;81.50;;;;;;4987735;28;20038;-76
2022/09/21 12:14:49;;;;;;;2.35;0.70;;;16.70;79.60;;;;;;4993001;28;20037;-75
2022/09/21 12:17:39;;;;;;;2.20;0.60;;;17.30;80.80;;;;;;4993711;28;20041;-75
2022/09/21 12:20:10;;;;;;;2.80;1.08;;;17.60;67.40;;;;;;4947920;28;20050;-75
2022/09/21 12:22:45;;;;;;;1.67;0.40;;;17.40;66.50;;;;;;4991478;28;20042;-76
2022/09/21 12:25:22;;;;;;;1.45;0.45;;;17.70;70.80;;;;;;4976041;28;20057;-74
2022/09/21 12:28:01;;;;;;;1.23;0.30;;;17.90;65.60;;;;;;4993552;28;20035;-74
2022/09/21 12:30:30;;;;;;;3.30;1.80;;;18.00;65.60;;;;;;4975872;28;20038;-74
2022/09/21 12:33:11;;;;;;;2.08;1.05;;;18.20;63.60;;;;;;4974919;28;20054;-75
2022/09/21 12:35:43;;;;;;;1.27;0.32;;;18.40;63.40;;;;;;4992790;28;20387;-75
2022/09/21 12:38:16;;;;;;;0.68;0.40;;;18.60;63.80;;;;;;4993746;28;20054;-74
2022/09/21 12:40:58;;;;;;;0.60;0.38;;;18.60;62.80;;;;;;4992889;28;20054;-74
2022/09/21 12:43:38;;;;;;;4.28;0.50;;;18.70;59.20;;;;;;4991969;28;20486;-75
2022/09/21 12:46:13;;;;;;;2.60;0.60;;;18.70;64.20;;;;;;4992978;28;20044;-76
2022/09/21 12:48:41;;;;;;;1.10;0.40;;;19.10;61.20;;;;;;4993027;28;20611;-75
2022/09/21 12:51:31;;;;;;;1.75;0.50;;;19.00;57.50;;;;;;4993134;28;20038;-73
2022/09/21 12:54:11;;;;;;;1.27;0.50;;;18.30;57.80;;;;;;4991658;28;20038;-74
2022/09/21 12:56:45;;;;;;;0.88;0.32;;;18.20;59.10;;;;;;4992869;28;20037;-75
2022/09/21 12:59:24;;;;;;;1.95;0.20;;;18.20;58.70;;;;;;4993466;28;20045;-75
2022/09/21 13:01:57;;;;;;;1.45;0.40;;;18.00;58.60;;;;;;4992104;28;20046;-74
2022/09/21 13:04:43;;;;;;;0.93;0.40;;;17.60;59.70;;;;;;4992771;28;20041;-73
2022/09/21 13:07:24;;;;;;;0.70;0.30;;;17.30;60.10;;;;;;4993216;28;20038;-73
2022/09/21 13:09:51;;;;;;;0.77;0.38;;;17.10;60.40;;;;;;4993130;28;20041;-74
2022/09/21 13:12:29;;;;;;;0.68;0.30;;;17.00;62.20;;;;;;4991574;28;20372;-75
2022/09/21 13:15:02;;;;;;;1.15;0.40;;;17.00;62.50;;;;;;4992887;28;20053;-74
2022/09/21 13:17:31;;;;;;;2.00;0.40;;;17.00;59.60;;;;;;4991857;28;20057;-73
2022/09/21 13:20:14;;;;;;;1.02;0.40;;;17.10;59.10;;;;;;4992535;28;20045;-73
2022/09/21 13:22:41;;;;;;;1.20;0.40;;;17.20;60.00;;;;;;4990482;28;20540;-74